sensor_id;sensor_type;location;lat;lon;timestamp;P1;durP1;ratioP1;P2;durP2;ratioP2
24517;SDS011;12678;51.336;12.406;2023-07-20T00:00:51;5.60;;;2.15;;
24517;SDS011;12678;51.336;12.406;2023-07-20T00:03:18;8.60;;;1.60;;
24517;SDS011;12678;51.336;12.406;2023-07-20T00:05:48;5.78;;;2.30;;
24517;SDS011;12678;51.336;12.406;2023-07-20T00:08:14;2.85;;;2.00;;
24517;SDS011;12678;51.336;12.406;2023-07-20T00:10:40;2.70;;;1.77;;
24517;SDS011;12678;51.336;12.406;2023-07-20T00:13:06;3.28;;;2.40;;
24517;SDS011;12678;51.336;12.406;2023-07-20T00:15:32;2.92;;;1.75;;
24517;SDS011;12678;51.336;12.406;2023-07-20T00:17:57;3.45;;;1.63;;
24517;SDS011;12678;51.336;12.406;2023-07-20T00:20:23;2.53;;;1.67;;
24517;SDS011;12678;51.336;12.406;2023-07-20T00:22:50;3.80;;;2.10;;
24517;SDS011;12678;51.336;12.406;2023-07-20T00:25:16;2.92;;;1.35;;
24517;SDS011;12678;51.336;12.406;2023-07-20T00:27:42;3.78;;;1.50;;
24517;SDS011;12678;51.336;12.406;2023-07-20T00:30:08;3.67;;;1.75;;
24517;SDS011;12678;51.336;12.406;2023-07-20T00:32:34;3.80;;;1.70;;
24517;SDS011;12678;51.336;12.406;2023-07-20T00:34:59;1.88;;;1.45;;
24517;SDS011;12678;51.336;12.406;2023-07-20T00:37:25;5.10;;;1.40;;
24517;SDS011;12678;51.336;12.406;2023-07-20T00:39:50;4.72;;;1.67;;
24517;SDS011;12678;51.336;12.406;2023-07-20T00:42:17;2.67;;;1.65;;
24517;SDS011;12678;51.336;12.406;2023-07-20T00:44:42;3.20;;;1.60;;
24517;SDS011;12678;51.336;12.406;2023-07-20T00:47:08;7.68;;;2.25;;
24517;SDS011;12678;51.336;12.406;2023-07-20T00:49:34;4.18;;;1.52;;
24517;SDS011;12678;51.336;12.406;2023-07-20T00:52:00;4.43;;;1.30;;
24517;SDS011;12678;51.336;12.406;2023-07-20T00:54:28;1.40;;;1.13;;
24517;SDS011;12678;51.336;12.406;2023-07-20T00:56:54;2.88;;;1.40;;
24517;SDS011;12678;51.336;12.406;2023-07-20T00:59:20;5.10;;;1.85;;
24517;SDS011;12678;51.336;12.406;2023-07-20T01:01:46;5.07;;;1.70;;
24517;SDS011;12678;51.336;12.406;2023-07-20T01:04:12;2.85;;;1.30;;
24517;SDS011;12678;51.336;12.406;2023-07-20T01:11:43;3.28;;;1.50;;
24517;SDS011;12678;51.336;12.406;2023-07-20T01:14:12;1.65;;;1.13;;
24517;SDS011;12678;51.336;12.406;2023-07-20T01:16:40;3.08;;;1.45;;
24517;SDS011;12678;51.336;12.406;2023-07-20T01:19:05;2.65;;;1.33;;
24517;SDS011;12678;51.336;12.406;2023-07-20T01:21:34;2.40;;;1.08;;
24517;SDS011;12678;51.336;12.406;2023-07-20T01:26:57;4.18;;;1.58;;
24517;SDS011;12678;51.336;12.406;2023-07-20T01:32:08;3.72;;;1.25;;
24517;SDS011;12678;51.336;12.406;2023-07-20T01:34:35;2.40;;;1.33;;
24517;SDS011;12678;51.336;12.406;2023-07-20T01:37:02;2.22;;;1.20;;
24517;SDS011;12678;51.336;12.406;2023-07-20T01:39:28;2.20;;;1.45;;
24517;SDS011;12678;51.336;12.406;2023-07-20T01:41:55;5.32;;;1.95;;
24517;SDS011;12678;51.336;12.406;2023-07-20T01:44:21;3.30;;;1.20;;
24517;SDS011;12678;51.336;12.406;2023-07-20T01:46:47;2.67;;;1.30;;
24517;SDS011;12678;51.336;12.406;2023-07-20T01:49:12;3.28;;;1.73;;
24517;SDS011;12678;51.336;12.406;2023-07-20T01:51:38;2.75;;;1.15;;
24517;SDS011;12678;51.336;12.406;2023-07-20T01:54:03;2.80;;;1.42;;
24517;SDS011;12678;51.336;12.406;2023-07-20T01:56:29;4.40;;;1.25;;
24517;SDS011;12678;51.336;12.406;2023-07-20T01:58:54;2.28;;;1.45;;
24517;SDS011;12678;51.336;12.406;2023-07-20T02:01:20;1.77;;;1.20;;
24517;SDS011;12678;51.336;12.406;2023-07-20T02:03:46;2.03;;;1.27;;
24517;SDS011;12678;51.336;12.406;2023-07-20T02:06:11;1.58;;;0.93;;
24517;SDS011;12678;51.336;12.406;2023-07-20T02:08:37;4.57;;;1.60;;
24517;SDS011;12678;51.336;12.406;2023-07-20T02:11:02;1.77;;;1.33;;
24517;SDS011;12678;51.336;12.406;2023-07-20T02:13:29;2.47;;;1.52;;
24517;SDS011;12678;51.336;12.406;2023-07-20T02:15:55;3.55;;;1.92;;
24517;SDS011;12678;51.336;12.406;2023-07-20T02:18:20;3.00;;;1.27;;
24517;SDS011;12678;51.336;12.406;2023-07-20T02:20:46;3.95;;;1.50;;
24517;SDS011;12678;51.336;12.406;2023-07-20T02:23:11;3.47;;;1.33;;
24517;SDS011;12678;51.336;12.406;2023-07-20T02:25:37;5.15;;;1.67;;
24517;SDS011;12678;51.336;12.406;2023-07-20T02:28:03;2.97;;;1.33;;
24517;SDS011;12678;51.336;12.406;2023-07-20T02:30:29;4.22;;;1.50;;
24517;SDS011;12678;51.336;12.406;2023-07-20T02:32:55;1.35;;;1.13;;
24517;SDS011;12678;51.336;12.406;2023-07-20T02:35:23;1.95;;;1.70;;
24517;SDS011;12678;51.336;12.406;2023-07-20T02:37:49;6.25;;;1.92;;
24517;SDS011;12678;51.336;12.406;2023-07-20T02:40:14;1.08;;;0.88;;
24517;SDS011;12678;51.336;12.406;2023-07-20T02:42:40;2.85;;;1.42;;
24517;SDS011;12678;51.336;12.406;2023-07-20T02:45:06;5.53;;;1.23;;
24517;SDS011;12678;51.336;12.406;2023-07-20T02:47:32;1.40;;;1.25;;
24517;SDS011;12678;51.336;12.406;2023-07-20T02:49:58;4.22;;;1.40;;
24517;SDS011;12678;51.336;12.406;2023-07-20T02:52:24;4.15;;;1.40;;
24517;SDS011;12678;51.336;12.406;2023-07-20T02:54:50;2.28;;;1.42;;
24517;SDS011;12678;51.336;12.406;2023-07-20T02:57:16;3.70;;;1.65;;
24517;SDS011;12678;51.336;12.406;2023-07-20T02:59:42;2.90;;;1.65;;
24517;SDS011;12678;51.336;12.406;2023-07-20T03:02:07;3.08;;;1.63;;
24517;SDS011;12678;51.336;12.406;2023-07-20T03:04:36;3.95;;;1.98;;
24517;SDS011;12678;51.336;12.406;2023-07-20T03:07:05;6.25;;;2.25;;
24517;SDS011;12678;51.336;12.406;2023-07-20T03:09:31;4.05;;;2.88;;
24517;SDS011;12678;51.336;12.406;2023-07-20T03:11:57;6.55;;;3.47;;
24517;SDS011;12678;51.336;12.406;2023-07-20T03:14:23;4.00;;;2.95;;
24517;SDS011;12678;51.336;12.406;2023-07-20T03:16:48;6.35;;;2.92;;
24517;SDS011;12678;51.336;12.406;2023-07-20T03:19:14;16.15;;;2.70;;
24517;SDS011;12678;51.336;12.406;2023-07-20T03:21:40;8.70;;;2.63;;
24517;SDS011;12678;51.336;12.406;2023-07-20T03:24:06;3.33;;;1.60;;
24517;SDS011;12678;51.336;12.406;2023-07-20T03:26:33;3.85;;;2.40;;
24517;SDS011;12678;51.336;12.406;2023-07-20T03:29:00;2.47;;;1.80;;
24517;SDS011;12678;51.336;12.406;2023-07-20T03:31:25;8.13;;;2.67;;
24517;SDS011;12678;51.336;12.406;2023-07-20T03:33:51;3.10;;;1.77;;
24517;SDS011;12678;51.336;12.406;2023-07-20T03:36:17;2.92;;;1.65;;
24517;SDS011;12678;51.336;12.406;2023-07-20T03:38:43;4.15;;;2.10;;
24517;SDS011;12678;51.336;12.406;2023-07-20T03:41:08;6.53;;;2.22;;
24517;SDS011;12678;51.336;12.406;2023-07-20T03:43:34;5.10;;;2.53;;
24517;SDS011;12678;51.336;12.406;2023-07-20T03:46:00;6.05;;;2.22;;
24517;SDS011;12678;51.336;12.406;2023-07-20T03:48:25;4.63;;;1.88;;
24517;SDS011;12678;51.336;12.406;2023-07-20T03:50:52;3.13;;;1.75;;
24517;SDS011;12678;51.336;12.406;2023-07-20T03:53:18;5.32;;;1.80;;
24517;SDS011;12678;51.336;12.406;2023-07-20T03:55:44;2.35;;;1.55;;
24517;SDS011;12678;51.336;12.406;2023-07-20T03:58:14;3.13;;;1.55;;
24517;SDS011;12678;51.336;12.406;2023-07-20T04:00:47;4.63;;;1.30;;
24517;SDS011;12678;51.336;12.406;2023-07-20T04:03:15;4.68;;;1.77;;
24517;SDS011;12678;51.336;12.406;2023-07-20T04:05:42;5.18;;;1.55;;
24517;SDS011;12678;51.336;12.406;2023-07-20T04:08:08;6.38;;;1.60;;
24517;SDS011;12678;51.336;12.406;2023-07-20T04:10:36;4.00;;;1.60;;
24517;SDS011;12678;51.336;12.406;2023-07-20T04:13:02;3.08;;;1.30;;
24517;SDS011;12678;51.336;12.406;2023-07-20T04:15:28;6.70;;;1.58;;
24517;SDS011;12678;51.336;12.406;2023-07-20T04:17:54;8.27;;;1.67;;
24517;SDS011;12678;51.336;12.406;2023-07-20T04:20:21;2.85;;;1.75;;
24517;SDS011;12678;51.336;12.406;2023-07-20T04:22:47;5.57;;;1.73;;
24517;SDS011;12678;51.336;12.406;2023-07-20T04:25:13;2.47;;;1.67;;
24517;SDS011;12678;51.336;12.406;2023-07-20T04:27:38;1.17;;;1.00;;
24517;SDS011;12678;51.336;12.406;2023-07-20T04:30:04;4.40;;;2.17;;
24517;SDS011;12678;51.336;12.406;2023-07-20T04:32:32;1.50;;;1.20;;
24517;SDS011;12678;51.336;12.406;2023-07-20T04:34:59;5.15;;;1.40;;
24517;SDS011;12678;51.336;12.406;2023-07-20T04:37:24;2.17;;;1.45;;
24517;SDS011;12678;51.336;12.406;2023-07-20T04:39:50;6.07;;;1.88;;
24517;SDS011;12678;51.336;12.406;2023-07-20T04:42:16;2.53;;;2.05;;
24517;SDS011;12678;51.336;12.406;2023-07-20T04:44:42;3.33;;;1.90;;
24517;SDS011;12678;51.336;12.406;2023-07-20T04:47:07;2.88;;;2.15;;
24517;SDS011;12678;51.336;12.406;2023-07-20T04:49:36;2.58;;;1.80;;
24517;SDS011;12678;51.336;12.406;2023-07-20T04:52:02;17.75;;;2.45;;
24517;SDS011;12678;51.336;12.406;2023-07-20T04:54:27;5.68;;;1.55;;
24517;SDS011;12678;51.336;12.406;2023-07-20T04:56:53;3.65;;;1.67;;
24517;SDS011;12678;51.336;12.406;2023-07-20T04:59:19;4.82;;;1.52;;
24517;SDS011;12678;51.336;12.406;2023-07-20T05:01:45;1.90;;;1.58;;
24517;SDS011;12678;51.336;12.406;2023-07-20T05:04:11;5.53;;;2.08;;
24517;SDS011;12678;51.336;12.406;2023-07-20T05:06:37;6.57;;;1.50;;
24517;SDS011;12678;51.336;12.406;2023-07-20T05:09:04;2.92;;;1.70;;
24517;SDS011;12678;51.336;12.406;2023-07-20T05:11:33;5.85;;;1.60;;
24517;SDS011;12678;51.336;12.406;2023-07-20T05:13:59;6.80;;;2.00;;
24517;SDS011;12678;51.336;12.406;2023-07-20T05:16:25;4.57;;;1.85;;
24517;SDS011;12678;51.336;12.406;2023-07-20T05:18:50;6.28;;;2.00;;
24517;SDS011;12678;51.336;12.406;2023-07-20T05:21:16;6.72;;;2.00;;
24517;SDS011;12678;51.336;12.406;2023-07-20T05:23:43;9.63;;;2.28;;
24517;SDS011;12678;51.336;12.406;2023-07-20T05:26:09;7.38;;;2.03;;
24517;SDS011;12678;51.336;12.406;2023-07-20T05:28:35;8.13;;;1.73;;
24517;SDS011;12678;51.336;12.406;2023-07-20T05:31:04;6.68;;;1.88;;
24517;SDS011;12678;51.336;12.406;2023-07-20T05:33:30;3.45;;;1.73;;
24517;SDS011;12678;51.336;12.406;2023-07-20T05:35:57;4.60;;;1.90;;
24517;SDS011;12678;51.336;12.406;2023-07-20T05:38:22;3.50;;;1.70;;
24517;SDS011;12678;51.336;12.406;2023-07-20T05:40:48;2.92;;;1.58;;
24517;SDS011;12678;51.336;12.406;2023-07-20T05:43:14;11.18;;;1.77;;
24517;SDS011;12678;51.336;12.406;2023-07-20T05:45:42;2.67;;;1.85;;
24517;SDS011;12678;51.336;12.406;2023-07-20T05:48:09;13.13;;;1.95;;
24517;SDS011;12678;51.336;12.406;2023-07-20T05:50:37;4.75;;;1.23;;
24517;SDS011;12678;51.336;12.406;2023-07-20T05:53:03;6.55;;;1.50;;
24517;SDS011;12678;51.336;12.406;2023-07-20T05:55:28;6.07;;;1.60;;
24517;SDS011;12678;51.336;12.406;2023-07-20T05:57:54;2.97;;;1.27;;
24517;SDS011;12678;51.336;12.406;2023-07-20T06:00:20;5.22;;;2.00;;
24517;SDS011;12678;51.336;12.406;2023-07-20T06:02:51;2.80;;;1.60;;
24517;SDS011;12678;51.336;12.406;2023-07-20T06:05:19;3.58;;;1.73;;
24517;SDS011;12678;51.336;12.406;2023-07-20T06:07:46;2.45;;;1.38;;
24517;SDS011;12678;51.336;12.406;2023-07-20T06:10:11;7.95;;;1.75;;
24517;SDS011;12678;51.336;12.406;2023-07-20T06:12:37;1.58;;;1.48;;
24517;SDS011;12678;51.336;12.406;2023-07-20T06:15:04;5.07;;;1.50;;
24517;SDS011;12678;51.336;12.406;2023-07-20T06:17:30;6.30;;;1.50;;
24517;SDS011;12678;51.336;12.406;2023-07-20T06:19:56;6.47;;;1.60;;
24517;SDS011;12678;51.336;12.406;2023-07-20T06:22:22;3.67;;;1.23;;
24517;SDS011;12678;51.336;12.406;2023-07-20T06:24:47;9.07;;;1.38;;
24517;SDS011;12678;51.336;12.406;2023-07-20T06:27:13;3.10;;;1.40;;
24517;SDS011;12678;51.336;12.406;2023-07-20T06:29:39;5.88;;;1.67;;
24517;SDS011;12678;51.336;12.406;2023-07-20T06:32:05;2.35;;;1.00;;
24517;SDS011;12678;51.336;12.406;2023-07-20T06:34:31;2.47;;;1.60;;
24517;SDS011;12678;51.336;12.406;2023-07-20T06:37:01;4.50;;;1.48;;
24517;SDS011;12678;51.336;12.406;2023-07-20T06:39:29;1.65;;;1.27;;
24517;SDS011;12678;51.336;12.406;2023-07-20T06:41:54;6.82;;;1.30;;
24517;SDS011;12678;51.336;12.406;2023-07-20T06:44:20;3.45;;;2.13;;
24517;SDS011;12678;51.336;12.406;2023-07-20T06:46:45;3.50;;;1.90;;
24517;SDS011;12678;51.336;12.406;2023-07-20T06:49:15;3.97;;;1.60;;
24517;SDS011;12678;51.336;12.406;2023-07-20T06:51:50;6.50;;;1.90;;
24517;SDS011;12678;51.336;12.406;2023-07-20T06:54:16;2.13;;;1.20;;
24517;SDS011;12678;51.336;12.406;2023-07-20T06:56:42;2.15;;;1.40;;
24517;SDS011;12678;51.336;12.406;2023-07-20T06:59:08;2.63;;;1.88;;
24517;SDS011;12678;51.336;12.406;2023-07-20T07:01:33;3.65;;;2.08;;
24517;SDS011;12678;51.336;12.406;2023-07-20T07:03:59;7.45;;;1.90;;
24517;SDS011;12678;51.336;12.406;2023-07-20T07:06:24;4.50;;;2.20;;
24517;SDS011;12678;51.336;12.406;2023-07-20T07:08:50;3.95;;;1.73;;
24517;SDS011;12678;51.336;12.406;2023-07-20T07:11:17;4.57;;;1.95;;
24517;SDS011;12678;51.336;12.406;2023-07-20T07:13:43;4.97;;;2.63;;
24517;SDS011;12678;51.336;12.406;2023-07-20T07:16:11;10.85;;;3.00;;
24517;SDS011;12678;51.336;12.406;2023-07-20T07:18:37;2.55;;;2.28;;
24517;SDS011;12678;51.336;12.406;2023-07-20T07:21:05;5.95;;;2.80;;
24517;SDS011;12678;51.336;12.406;2023-07-20T07:23:31;3.08;;;1.80;;
24517;SDS011;12678;51.336;12.406;2023-07-20T07:25:56;7.10;;;2.10;;
24517;SDS011;12678;51.336;12.406;2023-07-20T07:28:22;7.65;;;2.47;;
24517;SDS011;12678;51.336;12.406;2023-07-20T07:30:48;2.80;;;1.90;;
24517;SDS011;12678;51.336;12.406;2023-07-20T07:33:14;3.50;;;2.00;;
24517;SDS011;12678;51.336;12.406;2023-07-20T07:35:40;6.03;;;2.70;;
24517;SDS011;12678;51.336;12.406;2023-07-20T07:38:05;4.82;;;2.15;;
24517;SDS011;12678;51.336;12.406;2023-07-20T07:40:31;5.25;;;2.63;;
24517;SDS011;12678;51.336;12.406;2023-07-20T07:42:57;6.57;;;2.63;;
24517;SDS011;12678;51.336;12.406;2023-07-20T07:45:23;4.07;;;2.72;;
24517;SDS011;12678;51.336;12.406;2023-07-20T07:47:48;4.55;;;2.30;;
24517;SDS011;12678;51.336;12.406;2023-07-20T07:50:14;6.43;;;2.58;;
24517;SDS011;12678;51.336;12.406;2023-07-20T07:52:40;11.43;;;2.20;;
24517;SDS011;12678;51.336;12.406;2023-07-20T07:55:06;6.10;;;2.30;;
24517;SDS011;12678;51.336;12.406;2023-07-20T07:57:32;2.58;;;2.25;;
24517;SDS011;12678;51.336;12.406;2023-07-20T07:59:57;6.05;;;2.83;;
24517;SDS011;12678;51.336;12.406;2023-07-20T08:02:24;4.57;;;2.20;;
24517;SDS011;12678;51.336;12.406;2023-07-20T08:04:50;3.88;;;2.15;;
24517;SDS011;12678;51.336;12.406;2023-07-20T08:07:17;4.13;;;2.40;;
24517;SDS011;12678;51.336;12.406;2023-07-20T08:09:43;3.53;;;2.38;;
24517;SDS011;12678;51.336;12.406;2023-07-20T08:12:08;9.23;;;2.30;;
24517;SDS011;12678;51.336;12.406;2023-07-20T08:14:34;4.15;;;2.67;;
24517;SDS011;12678;51.336;12.406;2023-07-20T08:16:59;4.78;;;2.85;;
24517;SDS011;12678;51.336;12.406;2023-07-20T08:19:25;7.45;;;2.85;;
24517;SDS011;12678;51.336;12.406;2023-07-20T08:21:51;2.90;;;2.10;;
24517;SDS011;12678;51.336;12.406;2023-07-20T08:24:16;9.15;;;2.40;;
24517;SDS011;12678;51.336;12.406;2023-07-20T08:26:42;3.92;;;2.30;;
24517;SDS011;12678;51.336;12.406;2023-07-20T08:29:08;4.88;;;2.75;;
24517;SDS011;12678;51.336;12.406;2023-07-20T08:31:33;3.03;;;2.15;;
24517;SDS011;12678;51.336;12.406;2023-07-20T08:33:59;5.97;;;2.95;;
24517;SDS011;12678;51.336;12.406;2023-07-20T08:36:24;6.47;;;2.00;;
24517;SDS011;12678;51.336;12.406;2023-07-20T08:38:51;4.47;;;2.50;;
24517;SDS011;12678;51.336;12.406;2023-07-20T08:41:16;5.05;;;2.42;;
24517;SDS011;12678;51.336;12.406;2023-07-20T08:43:43;6.55;;;2.25;;
24517;SDS011;12678;51.336;12.406;2023-07-20T08:46:12;3.60;;;2.75;;
24517;SDS011;12678;51.336;12.406;2023-07-20T08:48:40;6.50;;;2.53;;
24517;SDS011;12678;51.336;12.406;2023-07-20T08:51:08;3.88;;;2.00;;
24517;SDS011;12678;51.336;12.406;2023-07-20T08:53:35;4.68;;;1.67;;
24517;SDS011;12678;51.336;12.406;2023-07-20T08:56:02;3.40;;;2.00;;
24517;SDS011;12678;51.336;12.406;2023-07-20T08:58:29;3.45;;;2.00;;
24517;SDS011;12678;51.336;12.406;2023-07-20T09:00:56;2.58;;;2.08;;
24517;SDS011;12678;51.336;12.406;2023-07-20T09:03:24;4.05;;;2.45;;
24517;SDS011;12678;51.336;12.406;2023-07-20T09:05:50;2.58;;;2.13;;
24517;SDS011;12678;51.336;12.406;2023-07-20T09:08:17;3.13;;;2.50;;
24517;SDS011;12678;51.336;12.406;2023-07-20T09:10:43;7.80;;;3.45;;
24517;SDS011;12678;51.336;12.406;2023-07-20T09:13:08;7.47;;;2.47;;
24517;SDS011;12678;51.336;12.406;2023-07-20T09:15:34;4.28;;;2.13;;
24517;SDS011;12678;51.336;12.406;2023-07-20T09:18:01;3.53;;;2.00;;
24517;SDS011;12678;51.336;12.406;2023-07-20T09:20:27;9.30;;;2.45;;
24517;SDS011;12678;51.336;12.406;2023-07-20T09:22:58;3.63;;;2.25;;
24517;SDS011;12678;51.336;12.406;2023-07-20T09:25:24;2.83;;;2.30;;
24517;SDS011;12678;51.336;12.406;2023-07-20T09:27:51;5.35;;;2.28;;
24517;SDS011;12678;51.336;12.406;2023-07-20T09:30:17;5.80;;;2.22;;
24517;SDS011;12678;51.336;12.406;2023-07-20T09:32:44;3.20;;;2.53;;
24517;SDS011;12678;51.336;12.406;2023-07-20T09:35:14;3.35;;;2.70;;
24517;SDS011;12678;51.336;12.406;2023-07-20T09:37:50;3.20;;;2.00;;
24517;SDS011;12678;51.336;12.406;2023-07-20T09:40:17;2.90;;;1.83;;
24517;SDS011;12678;51.336;12.406;2023-07-20T09:42:43;3.63;;;1.67;;
24517;SDS011;12678;51.336;12.406;2023-07-20T09:45:09;2.75;;;2.00;;
24517;SDS011;12678;51.336;12.406;2023-07-20T09:47:36;5.15;;;2.15;;
24517;SDS011;12678;51.336;12.406;2023-07-20T09:50:07;2.33;;;1.88;;
24517;SDS011;12678;51.336;12.406;2023-07-20T09:52:40;2.63;;;2.20;;
24517;SDS011;12678;51.336;12.406;2023-07-20T09:55:07;5.60;;;2.33;;
24517;SDS011;12678;51.336;12.406;2023-07-20T09:57:33;7.53;;;2.38;;
24517;SDS011;12678;51.336;12.406;2023-07-20T10:00:04;4.90;;;2.83;;
24517;SDS011;12678;51.336;12.406;2023-07-20T10:02:40;3.33;;;1.95;;
24517;SDS011;12678;51.336;12.406;2023-07-20T10:05:13;5.82;;;3.13;;
24517;SDS011;12678;51.336;12.406;2023-07-20T10:07:43;5.93;;;2.80;;
24517;SDS011;12678;51.336;12.406;2023-07-20T10:12:39;4.22;;;2.22;;
24517;SDS011;12678;51.336;12.406;2023-07-20T10:15:18;3.47;;;2.42;;
24517;SDS011;12678;51.336;12.406;2023-07-20T10:20:42;5.25;;;2.90;;
24517;SDS011;12678;51.336;12.406;2023-07-20T10:23:09;10.05;;;3.20;;
24517;SDS011;12678;51.336;12.406;2023-07-20T10:25:35;7.05;;;2.63;;
24517;SDS011;12678;51.336;12.406;2023-07-20T10:28:05;6.32;;;3.30;;
24517;SDS011;12678;51.336;12.406;2023-07-20T10:30:31;6.88;;;2.83;;
24517;SDS011;12678;51.336;12.406;2023-07-20T10:33:09;5.13;;;2.42;;
24517;SDS011;12678;51.336;12.406;2023-07-20T10:35:51;5.60;;;2.47;;
24517;SDS011;12678;51.336;12.406;2023-07-20T10:41:18;2.20;;;1.70;;
24517;SDS011;12678;51.336;12.406;2023-07-20T10:43:45;1.90;;;1.63;;
24517;SDS011;12678;51.336;12.406;2023-07-20T10:46:12;3.08;;;1.80;;
24517;SDS011;12678;51.336;12.406;2023-07-20T10:51:29;4.65;;;1.65;;
24517;SDS011;12678;51.336;12.406;2023-07-20T10:54:03;5.38;;;1.63;;
24517;SDS011;12678;51.336;12.406;2023-07-20T10:56:28;10.02;;;1.73;;
24517;SDS011;12678;51.336;12.406;2023-07-20T10:58:57;7.03;;;1.45;;
24517;SDS011;12678;51.336;12.406;2023-07-20T11:01:27;3.60;;;1.70;;
24517;SDS011;12678;51.336;12.406;2023-07-20T11:03:57;2.45;;;1.70;;
24517;SDS011;12678;51.336;12.406;2023-07-20T11:09:10;1.83;;;1.67;;
24517;SDS011;12678;51.336;12.406;2023-07-20T11:11:40;2.38;;;1.73;;
24517;SDS011;12678;51.336;12.406;2023-07-20T11:14:08;1.80;;;1.60;;
24517;SDS011;12678;51.336;12.406;2023-07-20T11:16:43;2.10;;;1.83;;
24517;SDS011;12678;51.336;12.406;2023-07-20T11:21:58;3.83;;;1.85;;
24517;SDS011;12678;51.336;12.406;2023-07-20T11:24:24;1.65;;;1.48;;
24517;SDS011;12678;51.336;12.406;2023-07-20T11:26:50;3.58;;;1.50;;
24517;SDS011;12678;51.336;12.406;2023-07-20T11:29:17;1.65;;;1.38;;
24517;SDS011;12678;51.336;12.406;2023-07-20T11:31:44;3.40;;;1.50;;
24517;SDS011;12678;51.336;12.406;2023-07-20T11:34:12;1.73;;;1.63;;
24517;SDS011;12678;51.336;12.406;2023-07-20T11:36:43;4.32;;;1.50;;
24517;SDS011;12678;51.336;12.406;2023-07-20T11:39:11;5.65;;;1.70;;
24517;SDS011;12678;51.336;12.406;2023-07-20T11:41:38;2.28;;;1.60;;
24517;SDS011;12678;51.336;12.406;2023-07-20T11:44:09;2.35;;;1.60;;
24517;SDS011;12678;51.336;12.406;2023-07-20T11:46:38;3.75;;;1.13;;
24517;SDS011;12678;51.336;12.406;2023-07-20T11:49:05;1.75;;;1.35;;
24517;SDS011;12678;51.336;12.406;2023-07-20T11:51:31;3.30;;;1.30;;
24517;SDS011;12678;51.336;12.406;2023-07-20T11:53:57;4.57;;;1.20;;
24517;SDS011;12678;51.336;12.406;2023-07-20T11:56:24;1.50;;;1.40;;
24517;SDS011;12678;51.336;12.406;2023-07-20T11:58:50;3.05;;;1.45;;
24517;SDS011;12678;51.336;12.406;2023-07-20T12:01:19;3.28;;;1.55;;
24517;SDS011;12678;51.336;12.406;2023-07-20T12:03:45;4.82;;;1.35;;
24517;SDS011;12678;51.336;12.406;2023-07-20T12:06:13;2.60;;;1.17;;
24517;SDS011;12678;51.336;12.406;2023-07-20T12:08:39;3.25;;;1.75;;
24517;SDS011;12678;51.336;12.406;2023-07-20T12:11:07;4.85;;;1.60;;
24517;SDS011;12678;51.336;12.406;2023-07-20T12:13:37;4.72;;;1.77;;
24517;SDS011;12678;51.336;12.406;2023-07-20T12:16:10;3.65;;;1.90;;
24517;SDS011;12678;51.336;12.406;2023-07-20T12:18:36;1.45;;;1.23;;
24517;SDS011;12678;51.336;12.406;2023-07-20T12:21:02;3.08;;;1.27;;
24517;SDS011;12678;51.336;12.406;2023-07-20T12:23:34;1.85;;;1.33;;
24517;SDS011;12678;51.336;12.406;2023-07-20T12:26:02;6.47;;;1.55;;
24517;SDS011;12678;51.336;12.406;2023-07-20T12:28:28;3.08;;;1.60;;
24517;SDS011;12678;51.336;12.406;2023-07-20T12:30:54;3.33;;;1.40;;
24517;SDS011;12678;51.336;12.406;2023-07-20T12:33:23;1.90;;;1.50;;
24517;SDS011;12678;51.336;12.406;2023-07-20T12:35:49;2.63;;;1.38;;
24517;SDS011;12678;51.336;12.406;2023-07-20T12:38:15;3.58;;;1.13;;
24517;SDS011;12678;51.336;12.406;2023-07-20T12:40:44;2.55;;;1.20;;
24517;SDS011;12678;51.336;12.406;2023-07-20T12:43:10;3.67;;;1.30;;
24517;SDS011;12678;51.336;12.406;2023-07-20T12:45:37;2.65;;;1.58;;
24517;SDS011;12678;51.336;12.406;2023-07-20T12:48:03;2.15;;;0.85;;
24517;SDS011;12678;51.336;12.406;2023-07-20T12:50:29;0.95;;;0.85;;
24517;SDS011;12678;51.336;12.406;2023-07-20T12:52:55;1.15;;;0.80;;
24517;SDS011;12678;51.336;12.406;2023-07-20T12:55:20;4.50;;;0.80;;
24517;SDS011;12678;51.336;12.406;2023-07-20T12:57:46;1.15;;;0.90;;
24517;SDS011;12678;51.336;12.406;2023-07-20T13:00:13;0.77;;;0.73;;
24517;SDS011;12678;51.336;12.406;2023-07-20T13:02:40;1.08;;;0.70;;
24517;SDS011;12678;51.336;12.406;2023-07-20T13:05:06;2.15;;;0.95;;
24517;SDS011;12678;51.336;12.406;2023-07-20T13:07:33;1.17;;;0.68;;
24517;SDS011;12678;51.336;12.406;2023-07-20T13:10:00;1.05;;;0.73;;
24517;SDS011;12678;51.336;12.406;2023-07-20T13:12:26;2.67;;;0.95;;
24517;SDS011;12678;51.336;12.406;2023-07-20T13:14:54;1.00;;;0.77;;
24517;SDS011;12678;51.336;12.406;2023-07-20T13:17:21;3.58;;;1.00;;
24517;SDS011;12678;51.336;12.406;2023-07-20T13:19:47;1.38;;;0.80;;
24517;SDS011;12678;51.336;12.406;2023-07-20T13:22:12;0.93;;;0.68;;
24517;SDS011;12678;51.336;12.406;2023-07-20T13:24:39;1.05;;;0.95;;
24517;SDS011;12678;51.336;12.406;2023-07-20T13:27:05;3.10;;;0.85;;
24517;SDS011;12678;51.336;12.406;2023-07-20T13:29:31;1.60;;;0.70;;
24517;SDS011;12678;51.336;12.406;2023-07-20T13:31:57;1.20;;;0.70;;
24517;SDS011;12678;51.336;12.406;2023-07-20T13:34:24;2.40;;;0.90;;
24517;SDS011;12678;51.336;12.406;2023-07-20T13:36:51;1.88;;;0.90;;
24517;SDS011;12678;51.336;12.406;2023-07-20T13:39:16;1.95;;;1.08;;
24517;SDS011;12678;51.336;12.406;2023-07-20T13:41:42;9.40;;;1.35;;
24517;SDS011;12678;51.336;12.406;2023-07-20T13:44:07;1.80;;;0.90;;
24517;SDS011;12678;51.336;12.406;2023-07-20T13:46:33;2.40;;;0.95;;
24517;SDS011;12678;51.336;12.406;2023-07-20T13:48:59;1.05;;;0.80;;
24517;SDS011;12678;51.336;12.406;2023-07-20T13:51:25;1.05;;;0.85;;
24517;SDS011;12678;51.336;12.406;2023-07-20T13:53:51;6.10;;;1.30;;
24517;SDS011;12678;51.336;12.406;2023-07-20T13:56:17;4.65;;;1.75;;
24517;SDS011;12678;51.336;12.406;2023-07-20T13:58:42;2.60;;;1.40;;
24517;SDS011;12678;51.336;12.406;2023-07-20T14:01:08;1.80;;;1.27;;
24517;SDS011;12678;51.336;12.406;2023-07-20T14:03:33;3.65;;;2.00;;
24517;SDS011;12678;51.336;12.406;2023-07-20T14:05:59;2.72;;;1.48;;
24517;SDS011;12678;51.336;12.406;2023-07-20T14:08:24;3.22;;;1.83;;
24517;SDS011;12678;51.336;12.406;2023-07-20T14:10:50;5.05;;;1.75;;
24517;SDS011;12678;51.336;12.406;2023-07-20T14:13:16;1.95;;;1.80;;
24517;SDS011;12678;51.336;12.406;2023-07-20T14:15:41;1.98;;;1.30;;
24517;SDS011;12678;51.336;12.406;2023-07-20T14:18:07;2.88;;;1.50;;
24517;SDS011;12678;51.336;12.406;2023-07-20T14:20:32;2.65;;;1.70;;
24517;SDS011;12678;51.336;12.406;2023-07-20T14:22:58;1.73;;;1.27;;
24517;SDS011;12678;51.336;12.406;2023-07-20T14:25:24;5.50;;;1.90;;
24517;SDS011;12678;51.336;12.406;2023-07-20T14:27:50;2.30;;;1.60;;
24517;SDS011;12678;51.336;12.406;2023-07-20T14:30:15;4.30;;;1.40;;
24517;SDS011;12678;51.336;12.406;2023-07-20T14:32:41;2.10;;;1.60;;
24517;SDS011;12678;51.336;12.406;2023-07-20T14:35:07;4.60;;;1.60;;
24517;SDS011;12678;51.336;12.406;2023-07-20T14:37:34;8.60;;;1.70;;
24517;SDS011;12678;51.336;12.406;2023-07-20T14:39:59;1.73;;;1.35;;
24517;SDS011;12678;51.336;12.406;2023-07-20T14:42:25;1.52;;;1.42;;
24517;SDS011;12678;51.336;12.406;2023-07-20T14:44:51;2.17;;;1.50;;
24517;SDS011;12678;51.336;12.406;2023-07-20T14:47:16;1.80;;;1.70;;
24517;SDS011;12678;51.336;12.406;2023-07-20T14:49:42;2.47;;;1.75;;
24517;SDS011;12678;51.336;12.406;2023-07-20T14:52:09;1.52;;;1.40;;
24517;SDS011;12678;51.336;12.406;2023-07-20T14:54:34;1.52;;;1.40;;
24517;SDS011;12678;51.336;12.406;2023-07-20T14:57:00;3.70;;;1.30;;